Portada
METAR-TAF:

METAR-TAF

Aeroports :

Fasa, Iran

latitud: 28-58N, longitud: 053-41E, altitud: 1383 m

Observació

L'informe es va fer fa 38 minuts, a les 03:00 UTC
Vent 4 kt del Nord/Nord-Oest
Temperatura 3°C
Humitat 100%
Pressió 1012 hPa
Visibilitat 10 km o més
Escasses núvols a una alçada de 4000 ft

METAR: OISF 210300Z 34004KT 9999 FEW040 03/03 Q1011 A2987

Hora: 07:08 (03:38 UTC)


TAF: manca

Observacions i pronòstics meteorològics de més de 4000 aeroports (METAR i TAF).

Les estacions disponibles són els punts grocs i vermells al mapa.

Posi el ratolí al punt desitjat per veure el nom de l'estació.

Feu clic per veure les observacions i els pronòstics meteorològics.

Per canviar el mapa: feu clic els botons verds amb una creu de color negre per apropar; al botó verd amb un guió per allunyar la imatge; o en les fletxes verdes per a mapes adjacents.


METAR-TAF: